Time;durP1;ratioP1;P1;durP2;ratioP2;P2;SDS_P1;SDS_P2;PMS_P1;PMS_P2;Temp;Humidity;BMP_temperature;BMP_pressure;BME280_temperature;BME280_humidity;BME280_pressure;Samples;Min_cycle;Max_cycle;Signal;HPM_P1;HPM_P2
2022/05/18 00:02:23;;;;;;;24.20;19.70;;;17.70;99.90;;;;;;5094791;28;20043;-77
2022/05/18 00:04:48;;;;;;;22.90;18.95;;;17.60;99.90;;;;;;5093195;28;20024;-77
2022/05/18 00:07:14;;;;;;;28.67;21.20;;;17.60;99.90;;;;;;5094238;28;20024;-78
2022/05/18 00:09:39;;;;;;;27.45;20.38;;;17.60;99.90;;;;;;5094228;28;20031;-78
2022/05/18 00:12:05;;;;;;;25.33;20.13;;;17.50;99.90;;;;;;5093838;28;20020;-77
2022/05/18 00:14:31;;;;;;;24.38;21.83;;;17.50;99.90;;;;;;5093990;28;20200;-77
2022/05/18 00:17:00;;;;;;;28.42;23.40;;;17.40;99.90;;;;;;5093656;28;20531;-77
2022/05/18 00:19:25;;;;;;;24.98;21.23;;;17.40;99.90;;;;;;5093045;28;20030;-77
2022/05/18 00:21:51;;;;;;;25.42;22.73;;;17.30;99.90;;;;;;5093774;28;20540;-77
2022/05/18 00:24:16;;;;;;;24.65;22.05;;;17.30;99.90;;;;;;5093375;28;20046;-76
2022/05/18 00:26:42;;;;;;;24.65;22.10;;;17.20;99.90;;;;;;5094072;28;20024;-77
2022/05/18 00:29:08;;;;;;;38.75;23.13;;;17.20;99.90;;;;;;5093740;28;20095;-78
2022/05/18 00:31:33;;;;;;;27.65;22.67;;;17.20;99.90;;;;;;5093001;28;20024;-78
2022/05/18 00:33:59;;;;;;;26.98;21.42;;;17.10;99.90;;;;;;5093125;28;20024;-76
2022/05/18 00:36:24;;;;;;;27.20;22.05;;;17.10;99.90;;;;;;5093629;28;20047;-77
2022/05/18 00:38:50;;;;;;;29.38;23.38;;;17.10;99.90;;;;;;5092582;28;20043;-76
2022/05/18 00:41:19;;;;;;;31.80;22.92;;;17.10;99.90;;;;;;5093615;28;20468;-76
2022/05/18 00:43:45;;;;;;;26.60;22.30;;;17.20;99.90;;;;;;5094738;28;20050;-77
2022/05/18 00:46:13;;;;;;;28.80;22.92;;;17.10;99.90;;;;;;5094411;28;20028;-76
2022/05/18 00:48:41;;;;;;;27.55;22.92;;;17.10;99.90;;;;;;5093177;28;20480;-77
2022/05/18 00:51:20;;;;;;;30.13;23.77;;;17.10;99.90;;;;;;5093008;28;20027;-77
2022/05/18 00:53:53;;;;;;;28.60;24.63;;;17.20;99.90;;;;;;5092594;28;20164;-77
2022/05/18 00:56:25;;;;;;;31.30;24.88;;;17.20;99.90;;;;;;5092687;28;20340;-77
2022/05/18 00:59:05;;;;;;;31.83;26.02;;;17.10;99.90;;;;;;5092388;28;20478;-76
2022/05/18 01:01:31;;;;;;;27.80;23.77;;;17.20;99.90;;;;;;5092560;28;20237;-77
2022/05/18 01:03:57;;;;;;;29.08;23.58;;;17.20;99.90;;;;;;5092738;28;20480;-77
2022/05/18 01:06:44;;;;;;;32.05;25.13;;;17.20;99.90;;;;;;5092254;28;20030;-77
2022/05/18 01:09:13;;;;;;;32.50;24.63;;;17.20;99.90;;;;;;5072118;28;20026;-77
2022/05/18 01:11:41;;;;;;;29.17;24.15;;;17.20;99.90;;;;;;5072756;28;20017;-76
2022/05/18 01:14:15;;;;;;;31.27;24.75;;;17.20;99.90;;;;;;5071483;28;20544;-78
2022/05/18 01:16:41;;;;;;;30.38;24.40;;;17.20;99.90;;;;;;5072485;28;20480;-78
2022/05/18 01:19:15;;;;;;;32.28;25.27;;;17.20;99.90;;;;;;5072137;28;20036;-76
2022/05/18 01:21:50;;;;;;;37.10;26.92;;;17.20;99.90;;;;;;5071765;28;20068;-77
2022/05/18 01:24:36;;;;;;;39.72;26.58;;;17.20;99.90;;;;;;5072300;28;20028;-78
2022/05/18 01:27:02;;;;;;;32.35;24.38;;;17.20;99.90;;;;;;5071871;28;20037;-77
2022/05/18 01:29:30;;;;;;;32.70;25.52;;;17.20;99.90;;;;;;5071617;28;20024;-77
2022/05/18 01:32:00;;;;;;;31.67;23.20;;;17.20;99.90;;;;;;5071989;28;20036;-77
2022/05/18 01:34:29;;;;;;;34.90;24.63;;;17.20;99.90;;;;;;5071906;28;20032;-77
2022/05/18 01:36:54;;;;;;;36.08;23.88;;;17.20;99.90;;;;;;5071981;28;20036;-77
2022/05/18 01:39:23;;;;;;;31.05;23.70;;;17.10;99.90;;;;;;5072417;28;20020;-77
2022/05/18 01:42:01;;;;;;;32.42;23.30;;;17.10;99.90;;;;;;5071277;28;20028;-78
2022/05/18 01:44:27;;;;;;;27.13;21.45;;;17.10;99.90;;;;;;5072276;28;20024;-76
2022/05/18 01:46:52;;;;;;;25.75;21.40;;;17.10;99.90;;;;;;5071802;28;20475;-78
2022/05/18 01:49:18;;;;;;;23.42;19.60;;;17.10;99.90;;;;;;5071316;28;20117;-76
2022/05/18 01:51:51;;;;;;;27.20;20.10;;;17.10;99.90;;;;;;5072136;28;20021;-77
2022/05/18 01:54:16;;;;;;;23.67;21.17;;;17.00;99.90;;;;;;5072142;28;20033;-76
2022/05/18 01:56:42;;;;;;;28.75;21.77;;;17.00;99.90;;;;;;5071245;28;20408;-77
2022/05/18 01:59:08;;;;;;;26.38;20.35;;;17.00;99.90;;;;;;5071634;28;20526;-76
2022/05/18 02:01:35;;;;;;;26.55;20.42;;;17.70;99.90;;;;;;5072010;28;20028;-78
2022/05/18 02:04:00;;;;;;;23.90;19.88;;;17.00;99.90;;;;;;5071171;28;20429;-76
2022/05/18 02:06:26;;;;;;;25.05;18.85;;;17.00;99.90;;;;;;5072124;28;20109;-76
2022/05/18 02:08:52;;;;;;;27.55;19.08;;;17.00;99.90;;;;;;5071716;28;20024;-76
2022/05/18 02:11:20;;;;;;;29.58;19.45;;;17.00;99.90;;;;;;5071037;28;20544;-78
2022/05/18 02:13:46;;;;;;;29.55;20.70;;;17.00;99.90;;;;;;5071654;28;20027;-78
2022/05/18 02:16:12;;;;;;;24.52;19.75;;;16.90;99.90;;;;;;5071673;28;20040;-78
2022/05/18 02:18:37;;;;;;;30.80;21.48;;;17.00;99.90;;;;;;5071545;28;20056;-78
2022/05/18 02:21:04;;;;;;;27.02;19.73;;;17.10;99.90;;;;;;5071560;28;20439;-77
2022/05/18 02:23:30;;;;;;;27.33;19.85;;;17.10;99.90;;;;;;5071797;28;20116;-78
2022/05/18 02:25:56;;;;;;;25.95;19.48;;;17.10;99.90;;;;;;5070887;28;20116;-77
2022/05/18 02:28:21;;;;;;;29.02;20.45;;;17.10;99.90;;;;;;5071516;28;20021;-76
2022/05/18 02:30:47;;;;;;;32.35;23.90;;;17.10;99.90;;;;;;5071189;28;20029;-76
2022/05/18 02:33:12;;;;;;;27.65;21.48;;;17.10;99.90;;;;;;5072248;28;20500;-76
2022/05/18 02:35:40;;;;;;;33.65;22.50;;;17.10;99.90;;;;;;5071960;28;20020;-77
2022/05/18 02:38:07;;;;;;;28.92;22.50;;;17.10;99.90;;;;;;5075333;28;20028;-77
2022/05/18 02:40:32;;;;;;;26.38;21.58;;;17.10;99.90;;;;;;5079017;28;20051;-77
2022/05/18 02:42:58;;;;;;;31.48;23.50;;;17.10;99.90;;;;;;5075222;28;20381;-78
2022/05/18 02:45:23;;;;;;;28.83;22.13;;;17.10;99.90;;;;;;5075389;28;20436;-77
2022/05/18 02:47:50;;;;;;;33.03;24.65;;;17.00;99.90;;;;;;5075189;28;20457;-77
2022/05/18 02:50:16;;;;;;;37.95;26.40;;;17.00;99.90;;;;;;5075308;28;20028;-76
2022/05/18 02:52:41;;;;;;;34.47;26.55;;;17.00;99.90;;;;;;5074653;28;20082;-77
2022/05/18 02:57:53;;;;;;;32.60;23.73;;;17.00;99.90;;;;;;5074875;28;20196;-77
2022/05/18 03:00:19;;;;;;;32.88;23.63;;;17.10;99.90;;;;;;5074687;28;20127;-78
2022/05/18 03:02:45;;;;;;;32.25;24.15;;;17.00;99.90;;;;;;5075355;28;20031;-75
2022/05/18 03:05:10;;;;;;;33.17;25.35;;;17.10;99.90;;;;;;5074965;28;20024;-78
2022/05/18 03:07:36;;;;;;;38.20;24.35;;;17.10;99.90;;;;;;5074396;28;20027;-77
2022/05/18 03:10:02;;;;;;;31.98;24.30;;;17.10;99.90;;;;;;5074754;28;20376;-77
2022/05/18 03:12:27;;;;;;;31.73;26.63;;;17.10;99.90;;;;;;5074584;28;20053;-76
2022/05/18 03:14:53;;;;;;;31.73;24.75;;;17.10;99.90;;;;;;5074104;28;20444;-77
2022/05/18 03:17:18;;;;;;;37.30;25.85;;;17.00;99.90;;;;;;5074728;28;20036;-75
2022/05/18 03:19:44;;;;;;;30.80;24.75;;;16.90;99.90;;;;;;5074825;28;20020;-77
2022/05/18 03:24:54;;;;;;;33.95;25.30;;;16.90;99.90;;;;;;5074344;28;20082;-77
2022/05/18 03:27:19;;;;;;;32.05;26.02;;;16.90;99.90;;;;;;5074082;28;20028;-79
2022/05/18 03:29:45;;;;;;;37.97;25.70;;;16.80;99.90;;;;;;5074701;28;20024;-77
2022/05/18 03:32:10;;;;;;;29.65;24.55;;;16.80;99.90;;;;;;5074381;28;20029;-76
2022/05/18 03:34:36;;;;;;;31.60;24.08;;;16.70;99.90;;;;;;5073538;28;20028;-77
2022/05/18 03:37:02;;;;;;;30.30;23.60;;;16.70;99.90;;;;;;5073817;28;20094;-75
2022/05/18 03:39:28;;;;;;;34.22;26.85;;;16.70;99.90;;;;;;5074440;28;20380;-76
2022/05/18 03:41:53;;;;;;;37.15;27.38;;;16.70;99.90;;;;;;5073455;28;20104;-77
2022/05/18 03:44:20;;;;;;;33.17;24.75;;;16.70;99.90;;;;;;5074724;28;20492;-77
2022/05/18 03:46:46;;;;;;;37.20;27.17;;;16.80;99.90;;;;;;5074154;28;20032;-75
2022/05/18 03:49:11;;;;;;;40.67;28.30;;;16.80;99.90;;;;;;5073248;28;20499;-76
2022/05/18 03:51:37;;;;;;;32.40;25.73;;;16.80;99.90;;;;;;5074116;28;20044;-78
2022/05/18 03:54:04;;;;;;;31.40;24.83;;;16.80;99.90;;;;;;5073784;28;20074;-78
2022/05/18 03:56:30;;;;;;;32.17;26.38;;;16.70;99.90;;;;;;5073051;28;20496;-76
2022/05/18 03:58:55;;;;;;;38.03;26.08;;;16.80;99.90;;;;;;5073822;28;20031;-78
2022/05/18 04:01:21;;;;;;;32.20;25.20;;;16.80;99.90;;;;;;5073946;28;20031;-77
2022/05/18 04:03:47;;;;;;;29.13;25.02;;;16.70;99.90;;;;;;5073211;28;20116;-77
2022/05/18 04:06:15;;;;;;;29.02;24.20;;;16.70;99.90;;;;;;5073754;28;20036;-76
2022/05/18 04:08:41;;;;;;;31.63;25.73;;;16.70;99.90;;;;;;5074106;28;20020;-78
2022/05/18 04:11:07;;;;;;;36.55;26.75;;;16.70;99.90;;;;;;5072864;28;20424;-78
2022/05/18 04:13:34;;;;;;;40.95;27.83;;;16.70;99.90;;;;;;5073810;28;20078;-77
2022/05/18 04:16:00;;;;;;;35.30;27.45;;;16.70;99.90;;;;;;5073432;28;20040;-76
2022/05/18 04:18:26;;;;;;;38.47;25.92;;;16.80;99.90;;;;;;5073037;28;20052;-78
2022/05/18 04:20:53;;;;;;;35.70;26.60;;;16.80;99.90;;;;;;5073042;28;20455;-77
2022/05/18 04:23:19;;;;;;;36.25;27.52;;;16.90;99.90;;;;;;5072798;28;20499;-77
2022/05/18 04:25:45;;;;;;;36.50;26.15;;;17.00;99.90;;;;;;5073420;28;20513;-77
2022/05/18 04:28:14;;;;;;;31.02;24.98;;;17.10;99.90;;;;;;5073321;28;20036;-76
2022/05/18 04:30:42;;;;;;;36.33;26.70;;;17.30;99.90;;;;;;5072683;28;20361;-79
2022/05/18 04:33:08;;;;;;;33.85;25.77;;;17.40;99.90;;;;;;5073176;28;20028;-76
2022/05/18 04:35:34;;;;;;;31.05;24.45;;;17.50;99.90;;;;;;5073097;28;20025;-76
2022/05/18 04:37:59;;;;;;;31.80;24.83;;;17.60;99.90;;;;;;5072434;28;20024;-77
2022/05/18 04:40:25;;;;;;;28.30;23.52;;;17.80;99.90;;;;;;5073166;28;20396;-77
2022/05/18 04:42:51;;;;;;;35.90;24.50;;;17.90;99.90;;;;;;5072760;28;20504;-77
2022/05/18 04:45:22;;;;;;;30.73;23.45;;;18.00;99.90;;;;;;5072629;28;20121;-77
2022/05/18 04:47:48;;;;;;;27.25;22.70;;;18.20;99.90;;;;;;5073099;28;20029;-77
2022/05/18 04:50:14;;;;;;;30.67;22.35;;;18.20;99.90;;;;;;5073032;28;20025;-77
2022/05/18 04:52:40;;;;;;;28.23;20.30;;;18.30;99.90;;;;;;5072492;28;20081;-77
2022/05/18 04:55:06;;;;;;;29.75;21.40;;;18.40;99.90;;;;;;5072614;28;20103;-77
2022/05/18 04:57:32;;;;;;;28.23;20.30;;;18.50;99.90;;;;;;5073451;28;20039;-78
2022/05/18 04:59:58;;;;;;;22.13;19.38;;;18.60;99.90;;;;;;5071942;28;20017;-78
2022/05/18 05:02:23;;;;;;;25.48;20.75;;;18.70;99.90;;;;;;5090483;28;20379;-76
2022/05/18 05:04:49;;;;;;;26.67;19.98;;;18.70;99.90;;;;;;5092606;28;20484;-76
2022/05/18 05:07:15;;;;;;;29.38;20.83;;;18.70;99.90;;;;;;5092482;28;20539;-77
2022/05/18 05:09:40;;;;;;;25.27;18.88;;;18.80;99.90;;;;;;5093053;28;20027;-77
2022/05/18 05:12:08;;;;;;;24.70;20.13;;;18.80;99.90;;;;;;5092702;28;20020;-77
2022/05/18 05:14:38;;;;;;;24.27;19.05;;;18.80;99.90;;;;;;5092017;28;20024;-78
2022/05/18 05:17:04;;;;;;;28.23;19.08;;;18.80;99.90;;;;;;5092226;28;20539;-77
2022/05/18 05:19:30;;;;;;;26.02;18.90;;;18.80;99.90;;;;;;5092778;28;20365;-76
2022/05/18 05:21:55;;;;;;;24.40;19.58;;;18.90;99.90;;;;;;5093622;28;20053;-76
2022/05/18 05:24:21;;;;;;;27.88;20.95;;;18.90;99.90;;;;;;5092778;28;20020;-77
2022/05/18 05:26:46;;;;;;;36.55;25.00;;;18.90;99.90;;;;;;5090232;28;20066;-76
2022/05/18 05:29:12;;;;;;;26.15;21.45;;;18.90;99.90;;;;;;5090657;28;20107;-77
2022/05/18 05:31:39;;;;;;;27.70;20.80;;;18.90;99.90;;;;;;5090352;28;20040;-76
2022/05/18 05:34:05;;;;;;;30.05;21.35;;;19.00;99.90;;;;;;5089811;28;20110;-76
2022/05/18 05:36:31;;;;;;;29.45;22.33;;;19.00;99.90;;;;;;5090497;28;20039;-76
2022/05/18 05:38:57;;;;;;;27.63;21.67;;;19.10;99.90;;;;;;5090517;28;20077;-76
2022/05/18 05:41:24;;;;;;;25.20;20.92;;;19.10;99.90;;;;;;5089294;28;21215;-77
2022/05/18 05:43:50;;;;;;;24.42;20.58;;;19.10;99.90;;;;;;5089552;28;20025;-77
2022/05/18 05:46:17;;;;;;;24.98;20.48;;;19.20;99.90;;;;;;5091012;28;20080;-76
2022/05/18 05:48:45;;;;;;;28.75;22.00;;;19.30;99.90;;;;;;5090528;28;20098;-76
2022/05/18 05:51:13;;;;;;;31.85;21.52;;;19.40;99.90;;;;;;5090912;28;20070;-77
2022/05/18 05:53:43;;;;;;;28.75;21.55;;;19.40;99.90;;;;;;5090951;28;20020;-76
2022/05/18 05:56:09;;;;;;;;;;;19.50;99.90;;;;;;5089985;28;20048;-77
2022/05/18 05:58:37;;;;;;;29.60;21.77;;;19.50;99.90;;;;;;5090708;28;19916;-77
2022/05/18 06:01:04;;;;;;;26.38;21.13;;;19.50;99.90;;;;;;5087523;28;20027;-77
2022/05/18 06:03:30;;;;;;;25.95;20.20;;;19.60;99.90;;;;;;5090146;28;20096;-76
2022/05/18 06:05:56;;;;;;;25.02;20.00;;;19.70;99.90;;;;;;5090737;28;20020;-77
2022/05/18 06:08:22;;;;;;;25.00;18.70;;;19.80;99.90;;;;;;5091435;28;20043;-77
2022/05/18 06:10:48;;;;;;;26.27;19.10;;;19.90;99.90;;;;;;5090446;28;20036;-78
2022/05/18 06:13:14;;;;;;;19.20;16.17;;;19.90;99.90;;;;;;5093805;28;20039;-76
2022/05/18 06:15:39;;;;;;;22.95;17.23;;;20.00;99.90;;;;;;5095398;28;20020;-77
2022/05/18 06:18:06;;;;;;;23.88;16.92;;;20.00;99.90;;;;;;5094616;28;20491;-78
2022/05/18 06:20:32;;;;;;;23.95;16.23;;;20.00;99.90;;;;;;5095469;28;20491;-76
2022/05/18 06:23:04;;;;;;;21.83;16.35;;;20.00;99.90;;;;;;5094677;28;20047;-80
2022/05/18 06:25:30;;;;;;;24.55;15.77;;;20.00;99.90;;;;;;5093058;28;20027;-77
2022/05/18 06:27:56;;;;;;;34.22;17.08;;;20.00;99.90;;;;;;5094949;28;20016;-77
2022/05/18 06:30:22;;;;;;;16.48;14.20;;;19.90;99.90;;;;;;5095830;28;20074;-78
2022/05/18 06:32:47;;;;;;;22.48;13.52;;;20.00;99.90;;;;;;5095800;28;20062;-78
2022/05/18 06:35:13;;;;;;;16.63;13.15;;;20.10;99.90;;;;;;5096009;28;20074;-77
2022/05/18 06:37:39;;;;;;;15.85;11.77;;;20.10;99.90;;;;;;5095116;28;20122;-78
2022/05/18 06:40:07;;;;;;;15.05;9.77;;;20.20;99.90;;;;;;5095490;28;20020;-74
2022/05/18 06:42:33;;;;;;;14.45;10.45;;;20.20;99.90;;;;;;5094653;28;20024;-76
2022/05/18 06:44:59;;;;;;;15.25;9.65;;;20.20;99.90;;;;;;5091080;28;20036;-74
2022/05/18 06:47:25;;;;;;;10.68;9.65;;;20.30;99.90;;;;;;5093918;28;20055;-74
2022/05/18 06:49:52;;;;;;;18.15;11.05;;;20.30;99.90;;;;;;5094039;28;20017;-75
2022/05/18 06:52:18;;;;;;;11.57;10.00;;;20.30;99.90;;;;;;5094196;28;20054;-75
2022/05/18 06:54:44;;;;;;;16.27;11.05;;;20.30;99.90;;;;;;5095646;28;20028;-75
2022/05/18 06:57:10;;;;;;;14.18;10.60;;;20.20;99.90;;;;;;5095088;28;20066;-75
2022/05/18 06:59:36;;;;;;;13.68;11.45;;;20.20;99.90;;;;;;5095431;28;20064;-75
2022/05/18 07:02:02;;;;;;;15.40;11.07;;;20.10;99.90;;;;;;5095120;28;20024;-76
2022/05/18 07:04:28;;;;;;;14.45;10.35;;;20.20;99.90;;;;;;5095546;28;20484;-75
2022/05/18 07:06:54;;;;;;;17.27;11.10;;;20.30;99.90;;;;;;5094211;28;20027;-75
2022/05/18 07:09:21;;;;;;;16.33;10.52;;;20.30;99.90;;;;;;5095264;28;20028;-75
2022/05/18 07:11:49;;;;;;;14.68;9.45;;;20.40;99.90;;;;;;5095079;28;20032;-75
2022/05/18 07:14:19;;;;;;;11.13;9.43;;;20.40;99.90;;;;;;5093711;28;20079;-74
2022/05/18 07:16:46;;;;;;;9.90;8.68;;;20.50;99.90;;;;;;5094363;28;20038;-74
2022/05/18 07:19:13;;;;;;;10.75;8.88;;;20.50;99.90;;;;;;5093382;28;20028;-75
2022/05/18 07:21:39;;;;;;;16.35;8.52;;;20.40;99.90;;;;;;5091645;28;20103;-75
2022/05/18 07:24:05;;;;;;;12.05;8.20;;;20.30;99.90;;;;;;5093870;28;20112;-75
2022/05/18 07:26:31;;;;;;;9.70;8.60;;;20.30;99.90;;;;;;5093509;28;20054;-75
2022/05/18 07:28:58;;;;;;;11.50;8.63;;;20.20;99.90;;;;;;5094448;28;20074;-75
2022/05/18 07:31:24;;;;;;;21.02;9.88;;;20.20;99.90;;;;;;5094913;28;20031;-75
2022/05/18 07:33:50;;;;;;;17.13;10.02;;;20.20;99.90;;;;;;5093542;28;20020;-75
2022/05/18 07:36:18;;;;;;;14.40;9.63;;;20.20;99.90;;;;;;5094495;28;20055;-75
2022/05/18 07:38:44;;;;;;;13.02;9.02;;;20.30;99.90;;;;;;5094473;28;20058;-74
2022/05/18 07:41:13;;;;;;;16.13;9.05;;;20.30;99.90;;;;;;5093875;28;20047;-76
2022/05/18 07:43:39;;;;;;;15.05;8.82;;;20.30;99.90;;;;;;5094513;28;20365;-75
2022/05/18 07:46:06;;;;;;;14.13;9.40;;;20.30;99.90;;;;;;5094208;28;20047;-75
2022/05/18 07:48:32;;;;;;;11.38;8.43;;;20.30;99.90;;;;;;5093751;28;20035;-76
2022/05/18 07:50:58;;;;;;;15.90;9.40;;;20.30;99.90;;;;;;5094056;28;20024;-75
2022/05/18 07:53:24;;;;;;;10.80;8.05;;;20.40;99.90;;;;;;5094204;28;20063;-75
2022/05/18 07:55:50;;;;;;;9.48;8.07;;;20.50;99.90;;;;;;5093131;28;20127;-75
2022/05/18 07:58:18;;;;;;;8.95;7.75;;;20.50;99.90;;;;;;5094256;28;20111;-75
2022/05/18 08:00:45;;;;;;;13.93;7.65;;;20.60;99.90;;;;;;5094245;28;20383;-75
2022/05/18 08:03:12;;;;;;;7.78;6.93;;;20.70;99.90;;;;;;5093215;28;20028;-74
2022/05/18 08:05:39;;;;;;;10.27;7.90;;;20.80;99.90;;;;;;5075885;28;20020;-74
2022/05/18 08:08:12;;;;;;;17.23;7.35;;;20.90;99.90;;;;;;5093662;28;20020;-75
2022/05/18 08:16:08;;;;;;;12.48;7.15;;;21.10;99.90;;;;;;5094988;28;20578;-75
2022/05/18 08:18:34;;;;;;;14.60;7.82;;;21.10;99.90;;;;;;5097532;28;20024;-76
2022/05/18 08:20:59;;;;;;;12.02;7.78;;;21.10;99.90;;;;;;5094811;28;20114;-75
2022/05/18 08:23:25;;;;;;;11.18;8.68;;;21.30;99.90;;;;;;5093099;28;20442;-75
2022/05/18 08:25:54;;;;;;;9.95;7.32;;;21.20;99.90;;;;;;5093466;28;20107;-76
2022/05/18 08:28:20;;;;;;;11.90;8.35;;;21.20;99.90;;;;;;5093551;28;20454;-75
2022/05/18 08:30:46;;;;;;;11.38;8.90;;;21.20;99.90;;;;;;5092660;28;20123;-75
2022/05/18 08:33:11;;;;;;;15.93;8.57;;;21.20;99.90;;;;;;5093145;28;20059;-74
2022/05/18 08:35:38;;;;;;;16.60;8.50;;;21.30;99.90;;;;;;5092725;28;20464;-75
2022/05/18 08:38:03;;;;;;;14.80;9.07;;;21.30;99.90;;;;;;5092015;28;20028;-75
2022/05/18 08:40:29;;;;;;;14.63;8.85;;;21.50;99.90;;;;;;5093368;28;20038;-75
2022/05/18 08:43:00;;;;;;;14.68;8.98;;;21.70;99.90;;;;;;5093037;28;20020;-75
2022/05/18 08:45:30;;;;;;;13.85;7.22;;;21.80;99.90;;;;;;5092555;28;20081;-75
2022/05/18 08:48:02;;;;;;;16.02;9.32;;;21.80;99.90;;;;;;5093252;28;20035;-76
2022/05/18 08:50:28;;;;;;;12.05;8.10;;;21.80;99.90;;;;;;5093039;28;20035;-74
2022/05/18 08:53:16;;;;;;;12.50;8.82;;;21.70;99.90;;;;;;5092534;28;20020;-74
2022/05/18 08:56:11;;;;;;;10.50;8.15;;;21.80;99.90;;;;;;5092836;28;20066;-75
2022/05/18 08:58:43;;;;;;;13.93;9.35;;;21.90;99.90;;;;;;5092370;28;20044;-74
2022/05/18 09:01:42;;;;;;;17.10;9.23;;;21.90;99.90;;;;;;5092838;28;20490;-75
2022/05/18 09:04:16;;;;;;;18.52;10.05;;;21.90;99.90;;;;;;5092771;28;20028;-75
2022/05/18 09:06:53;;;;;;;14.95;10.73;;;21.80;99.90;;;;;;5092361;28;20050;-74
2022/05/18 09:12:30;;;;;;;13.70;10.80;;;21.70;99.90;;;;;;5092582;28;20128;-74
2022/05/18 09:14:56;;;;;;;16.20;10.95;;;21.60;99.90;;;;;;5092689;28;20487;-75
2022/05/18 09:17:40;;;;;;;19.33;12.05;;;21.70;99.90;;;;;;5092722;28;20089;-75
2022/05/18 09:20:12;;;;;;;23.33;10.98;;;21.80;99.90;;;;;;5091625;28;20027;-75
2022/05/18 09:22:59;;;;;;;16.10;11.77;;;21.90;99.90;;;;;;5092578;28;20492;-75
2022/05/18 09:25:30;;;;;;;17.85;12.27;;;22.00;99.90;;;;;;5092868;28;20119;-83
2022/05/18 09:28:08;;;;;;;17.25;12.20;;;22.00;99.90;;;;;;5073605;28;20046;-78
2022/05/18 09:30:48;;;;;;;20.38;10.93;;;22.00;99.90;;;;;;5092488;28;20035;-78
2022/05/18 09:33:30;;;;;;;19.83;12.80;;;22.00;99.90;;;;;;5091929;28;20024;-75
2022/05/18 09:36:04;;;;;;;18.88;12.57;;;22.10;99.90;;;;;;5092314;28;20020;-75
2022/05/18 09:38:41;;;;;;;18.48;12.30;;;22.00;99.90;;;;;;5092596;28;20467;-77
2022/05/18 09:41:14;;;;;;;17.88;13.48;;;22.10;99.90;;;;;;5091453;28;20020;-76
2022/05/18 09:43:39;;;;;;;22.83;13.65;;;22.10;99.90;;;;;;5092377;28;20114;-75
2022/05/18 09:46:08;;;;;;;27.20;13.88;;;22.10;99.90;;;;;;5091919;28;20423;-73
2022/05/18 09:48:44;;;;;;;21.25;13.93;;;22.20;99.90;;;;;;5091438;28;20036;-74
2022/05/18 09:51:10;;;;;;;25.02;13.63;;;22.20;99.90;;;;;;5091914;28;20056;-75
2022/05/18 09:53:38;;;;;;;19.75;12.40;;;22.30;99.90;;;;;;5091883;28;20537;-75
2022/05/18 09:56:09;;;;;;;22.48;13.77;;;22.30;99.90;;;;;;5091049;28;20083;-75
2022/05/18 09:58:40;;;;;;;23.00;12.90;;;22.30;99.90;;;;;;5092116;28;20131;-74
2022/05/18 10:09:48;;;;;;;14.35;11.75;;;22.60;99.90;;;;;;5090775;28;20392;-77
2022/05/18 10:12:26;;;;;;;17.60;13.05;;;22.60;99.90;;;;;;5089124;28;20055;-77
2022/05/18 10:15:04;;;;;;;18.98;13.57;;;22.60;99.90;;;;;;5090748;28;20035;-77
2022/05/18 10:17:35;;;;;;;20.48;12.63;;;22.60;99.90;;;;;;5091413;28;20104;-77
2022/05/18 10:20:19;;;;;;;20.10;12.82;;;22.50;99.90;;;;;;5091665;28;20091;-75
2022/05/18 10:22:46;;;;;;;18.63;13.52;;;22.60;99.90;;;;;;5091372;28;20025;-76
2022/05/18 10:25:22;;;;;;;28.08;14.65;;;22.70;99.90;;;;;;5091656;28;20392;-75
2022/05/18 10:27:49;;;;;;;20.45;13.13;;;22.80;99.90;;;;;;5091357;28;20467;-75
2022/05/18 10:30:29;;;;;;;20.88;13.75;;;22.90;99.90;;;;;;5091266;28;20027;-75
2022/05/18 10:32:54;;;;;;;;;;;22.80;99.90;;;;;;5092192;28;20077;-76
2022/05/18 10:35:44;;;;;;;17.75;11.57;;;22.90;99.90;;;;;;5091364;28;19912;-78
2022/05/18 10:38:23;;;;;;;18.25;13.10;;;22.90;99.90;;;;;;5090926;28;20488;-76
2022/05/18 10:40:53;;;;;;;19.30;11.30;;;23.00;99.90;;;;;;5091604;28;20078;-77
2022/05/18 10:43:30;;;;;;;16.13;10.15;;;23.20;99.90;;;;;;5087211;28;20063;-77
2022/05/18 10:46:08;;;;;;;13.07;10.50;;;23.20;99.90;;;;;;5091038;28;20047;-75
2022/05/18 10:48:34;;;;;;;19.42;11.25;;;23.20;99.90;;;;;;5091580;28;20042;-76
2022/05/18 10:51:08;;;;;;;14.32;9.65;;;23.40;99.90;;;;;;5090979;28;20554;-76
2022/05/18 10:53:46;;;;;;;20.35;11.95;;;23.50;99.90;;;;;;5091882;28;20028;-76
2022/05/18 10:56:25;;;;;;;14.40;11.18;;;23.50;99.90;;;;;;5090638;28;20497;-75
2022/05/18 10:59:17;;;;;;;16.60;12.77;;;23.50;99.90;;;;;;5088975;28;20472;-75
2022/05/18 11:02:06;;;;;;;16.77;11.05;;;23.40;99.90;;;;;;5095153;28;20039;-75
2022/05/18 11:04:50;;;;;;;16.63;10.63;;;23.50;99.90;;;;;;5094313;28;20113;-76
2022/05/18 11:07:19;;;;;;;14.60;11.07;;;23.70;99.90;;;;;;5095434;28;20482;-75
2022/05/18 11:09:44;;;;;;;19.63;10.55;;;23.90;99.90;;;;;;5095261;28;20012;-75
2022/05/18 11:12:37;;;;;;;16.67;11.02;;;24.00;99.90;;;;;;5094181;28;20039;-75
2022/05/18 11:15:12;;;;;;;11.98;10.13;;;24.10;99.90;;;;;;5095215;28;20027;-76
2022/05/18 11:18:12;;;;;;;15.30;11.05;;;24.10;99.90;;;;;;5095527;28;20043;-75
2022/05/18 11:20:44;;;;;;;;;;;24.10;99.90;;;;;;5095338;28;20058;-76
2022/05/18 11:23:15;;;;;;;12.15;9.93;;;24.10;99.90;;;;;;5093147;28;20188;-76
2022/05/18 11:26:09;;;;;;;15.48;10.23;;;24.10;99.90;;;;;;5091261;28;20024;-76
2022/05/18 11:28:56;;;;;;;15.23;9.85;;;24.20;99.90;;;;;;5093739;28;20020;-75
2022/05/18 11:31:31;;;;;;;15.10;10.95;;;24.30;99.90;;;;;;5093881;28;20152;-74
2022/05/18 11:34:27;;;;;;;19.27;9.50;;;24.30;99.90;;;;;;5092629;28;20020;-76
2022/05/18 11:37:19;;;;;;;11.35;8.90;;;24.30;99.90;;;;;;5076558;28;20044;-76
2022/05/18 11:39:53;;;;;;;15.77;10.07;;;24.40;99.90;;;;;;5090951;28;20373;-75
2022/05/18 11:42:51;;;;;;;17.30;10.20;;;24.40;99.90;;;;;;5093107;28;20031;-75
2022/05/18 11:45:41;;;;;;;11.55;9.05;;;24.50;99.30;;;;;;5093148;28;20111;-75
2022/05/18 11:48:32;;;;;;;11.90;8.43;;;24.60;99.70;;;;;;5092686;28;20031;-75
2022/05/18 11:51:04;;;;;;;13.18;8.93;;;24.50;99.30;;;;;;5093021;28;20073;-75
2022/05/18 11:53:56;;;;;;;12.23;8.95;;;24.40;99.30;;;;;;5092656;28;20499;-75
2022/05/18 11:56:35;;;;;;;11.52;8.38;;;24.40;99.60;;;;;;5090597;28;20477;-75
2022/05/18 11:59:45;;;;;;;9.10;8.18;;;24.30;99.30;;;;;;5092696;28;20020;-74
2022/05/18 12:02:37;;;;;;;12.32;8.15;;;24.20;99.30;;;;;;5090249;28;20031;-76
2022/05/18 12:05:17;;;;;;;11.30;7.97;;;24.00;99.10;;;;;;5092990;28;20089;-77
2022/05/18 12:08:39;;;;;;;9.07;7.53;;;23.80;99.10;;;;;;5092006;28;20191;-76
2022/05/18 12:11:21;;;;;;;11.70;7.60;;;23.90;99.40;;;;;;4989116;28;20116;-77
2022/05/18 12:14:21;;;;;;;8.85;6.57;;;24.10;99.40;;;;;;4991689;28;20034;-77
2022/05/18 12:17:07;;;;;;;;;;;24.40;99.50;;;;;;5047174;28;20079;-76
2022/05/18 12:19:50;;;;;;;8.30;6.80;;;24.20;98.70;;;;;;5092125;28;19904;-76
2022/05/18 12:22:26;;;;;;;11.80;7.45;;;24.10;98.60;;;;;;5092483;28;20020;-77
2022/05/18 12:24:53;;;;;;;8.43;6.32;;;23.90;98.10;;;;;;5091576;28;20433;-75
2022/05/18 12:27:23;;;;;;;10.65;6.13;;;23.80;99.40;;;;;;5093341;28;20016;-74
2022/05/18 12:29:52;;;;;;;9.10;6.63;;;23.90;99.60;;;;;;5091047;28;20031;-75
2022/05/18 12:32:19;;;;;;;12.48;6.28;;;23.90;99.30;;;;;;5093082;28;20471;-75
2022/05/18 12:35:07;;;;;;;10.07;7.05;;;24.00;98.70;;;;;;5093257;28;20441;-76
2022/05/18 12:38:06;;;;;;;10.18;7.13;;;24.10;98.70;;;;;;5093116;28;20067;-76
2022/05/18 12:40:52;;;;;;;7.43;6.50;;;24.10;98.60;;;;;;5091890;28;20074;-75
2022/05/18 12:43:27;;;;;;;7.38;6.15;;;24.00;97.70;;;;;;5091590;28;20054;-75
2022/05/18 12:46:15;;;;;;;6.88;6.05;;;23.90;99.00;;;;;;5093279;28;20093;-77
2022/05/18 12:48:53;;;;;;;9.57;6.85;;;23.90;98.80;;;;;;5093303;28;20107;-75
2022/05/18 12:51:29;;;;;;;10.07;6.80;;;23.90;98.50;;;;;;5092396;28;20036;-76
2022/05/18 12:54:09;;;;;;;9.88;6.82;;;24.00;98.50;;;;;;5093060;28;20032;-75
2022/05/18 12:56:35;;;;;;;9.45;6.47;;;24.10;98.20;;;;;;5092793;28;20052;-76
2022/05/18 12:59:31;;;;;;;8.73;6.22;;;24.20;98.60;;;;;;5092011;28;20046;-76
2022/05/18 13:02:04;;;;;;;8.88;6.38;;;24.30;98.30;;;;;;5017795;28;20525;-75
2022/05/18 13:04:44;;;;;;;9.07;6.32;;;24.30;98.60;;;;;;5091832;28;20138;-75
2022/05/18 13:07:28;;;;;;;9.13;7.53;;;24.20;97.40;;;;;;5089811;28;20119;-76
2022/05/18 13:10:10;;;;;;;7.22;6.45;;;23.80;97.90;;;;;;5092664;28;20028;-76
2022/05/18 13:12:40;;;;;;;7.05;6.35;;;23.80;98.40;;;;;;5092390;28;20051;-75